createdAt,value
2023-05-06T00:00:56.908Z,85.49
2023-05-06T00:03:59.991Z,85.66
2023-05-06T00:07:02.919Z,85.82
2023-05-06T00:10:06.705Z,86.29
2023-05-06T00:13:09.590Z,85.26
2023-05-06T00:16:12.846Z,85.15
2023-05-06T00:19:15.675Z,85.01
2023-05-06T00:22:18.831Z,85.16
2023-05-06T00:25:21.897Z,85.33
2023-05-06T00:28:25.521Z,85.23
2023-05-06T00:31:28.422Z,84.36
2023-05-06T00:34:31.490Z,83.40
2023-05-06T00:37:34.153Z,83.34
2023-05-06T00:40:37.424Z,83.71
2023-05-06T00:43:40.219Z,83.74
2023-05-06T00:46:43.999Z,84.78
2023-05-06T00:49:47.242Z,85.67
2023-05-06T00:52:51.120Z,85.86
2023-05-06T00:55:54.299Z,85.44
2023-05-06T00:58:58.013Z,85.21
2023-05-06T01:02:01.231Z,85.86
2023-05-06T01:05:05.890Z,86.46
2023-05-06T01:08:25.635Z,86.56
2023-05-06T01:11:38.868Z,86.06
2023-05-06T01:14:55.987Z,86.38
2023-05-06T01:18:01.134Z,85.97
2023-05-06T01:21:05.634Z,85.82
2023-05-06T01:24:09.032Z,85.58
2023-05-06T01:27:14.072Z,85.51
2023-05-06T01:30:19.891Z,84.51
2023-05-06T01:33:48.553Z,85.41
2023-05-06T01:37:22.487Z,86.85
2023-05-06T01:40:27.483Z,87.09
2023-05-06T01:43:38.412Z,86.62
2023-05-06T01:46:43.138Z,86.99
2023-05-06T01:49:48.251Z,87.55
2023-05-06T01:53:01.469Z,87.82
2023-05-06T01:56:05.428Z,86.76
2023-05-06T01:59:08.116Z,89.23
2023-05-06T02:02:11.501Z,90.19
2023-05-06T02:05:14.498Z,90.29
2023-05-06T02:08:18.229Z,89.43
2023-05-06T02:11:21.520Z,90.08
2023-05-06T02:14:24.993Z,89.52
2023-05-06T02:17:28.504Z,89.26
2023-05-06T02:20:32.114Z,89.55
2023-05-06T02:23:35.296Z,87.97
2023-05-06T02:26:38.325Z,89.57
2023-05-06T02:29:40.970Z,89.48
2023-05-06T02:32:44.111Z,87.86
2023-05-06T02:35:46.915Z,86.66
2023-05-06T02:38:52.527Z,87.86
2023-05-06T02:41:55.250Z,88.18
2023-05-06T02:44:58.283Z,87.66
2023-05-06T02:48:01.051Z,88.88
2023-05-06T02:51:06.465Z,89.62
2023-05-06T02:54:09.248Z,89.55
2023-05-06T02:57:12.373Z,88.98
2023-05-06T03:00:15.717Z,88.56
2023-05-06T03:03:18.897Z,88.78
2023-05-06T03:06:21.941Z,88.37
2023-05-06T03:09:25.007Z,87.76
2023-05-06T03:12:27.903Z,86.71
2023-05-06T03:15:32.744Z,87.15
2023-05-06T03:18:35.469Z,86.99
2023-05-06T03:21:39.091Z,87.01
2023-05-06T03:24:41.890Z,86.38
2023-05-06T03:27:45.034Z,87.36
2023-05-06T03:30:48.817Z,88.33
2023-05-06T03:33:52.754Z,88.42
2023-05-06T03:36:56.281Z,91.06
2023-05-06T03:40:04.064Z,89.29
2023-05-06T03:43:07.393Z,90.23
2023-05-06T03:46:11.547Z,90.79
2023-05-06T03:49:15.584Z,91.08
2023-05-06T03:52:20.042Z,90.58
2023-05-06T03:55:23.153Z,91.20
2023-05-06T03:58:26.566Z,90.58
2023-05-06T04:01:29.351Z,90.89
2023-05-06T04:04:32.702Z,91.55
2023-05-06T04:07:35.436Z,91.65
2023-05-06T04:10:41.944Z,92.17
2023-05-06T04:13:45.861Z,92.50
2023-05-06T04:16:49.541Z,92.23
2023-05-06T04:19:54.015Z,92.10
2023-05-06T04:22:57.498Z,91.78
2023-05-06T04:26:01.451Z,91.11
2023-05-06T04:29:05.200Z,91.00
2023-05-06T04:32:10.496Z,91.17
2023-05-06T04:35:13.860Z,91.72
2023-05-06T04:38:17.738Z,91.13
2023-05-06T04:41:20.987Z,91.57
2023-05-06T04:44:23.934Z,91.99
2023-05-06T04:47:28.094Z,91.43
2023-05-06T04:50:30.982Z,90.86
2023-05-06T04:53:34.209Z,90.32
2023-05-06T04:56:37.141Z,90.43
2023-05-06T04:59:42.773Z,87.67
2023-05-06T05:02:47.108Z,84.94
2023-05-06T05:05:50.904Z,82.25
2023-05-06T05:08:55.417Z,81.80
2023-05-06T05:11:59.240Z,82.50
2023-05-06T05:15:02.486Z,80.74
2023-05-06T05:18:06.379Z,77.55
2023-05-06T05:21:10.307Z,75.98
2023-05-06T05:24:13.592Z,76.24
2023-05-06T05:27:16.628Z,73.66
2023-05-06T05:30:20.262Z,74.72
2023-05-06T05:33:23.573Z,72.03
2023-05-06T05:36:27.811Z,74.75
2023-05-06T05:39:31.072Z,74.28
2023-05-06T05:42:34.675Z,74.27
2023-05-06T05:45:38.283Z,73.89
2023-05-06T05:48:42.128Z,74.16
2023-05-06T05:51:46.226Z,73.53
2023-05-06T05:54:51.576Z,72.84
2023-05-06T05:57:55.164Z,71.36
2023-05-06T06:00:58.888Z,71.33
2023-05-06T06:04:02.968Z,70.61
2023-05-06T06:07:06.161Z,71.33
2023-05-06T06:10:10.253Z,69.76
2023-05-06T06:13:13.611Z,69.68
2023-05-06T06:16:17.423Z,71.63
2023-05-06T06:19:20.596Z,69.20
2023-05-06T06:22:24.482Z,69.20
2023-05-06T06:25:27.767Z,69.11
2023-05-06T06:28:31.498Z,66.90
2023-05-06T06:31:35.079Z,66.48
2023-05-06T06:34:38.125Z,65.89
2023-05-06T06:37:40.818Z,64.62
2023-05-06T06:40:44.002Z,64.46
2023-05-06T06:43:46.730Z,63.77
2023-05-06T06:46:50.632Z,62.53
2023-05-06T06:49:54.109Z,62.55
2023-05-06T06:52:57.207Z,61.80
2023-05-06T06:55:59.911Z,60.81
2023-05-06T06:59:02.849Z,58.31
2023-05-06T07:02:05.767Z,59.52
2023-05-06T07:05:09.540Z,57.64
2023-05-06T07:08:12.590Z,57.19
2023-05-06T07:11:15.795Z,55.36
2023-05-06T07:14:18.421Z,50.74
2023-05-06T07:17:21.647Z,47.78
2023-05-06T07:20:24.339Z,49.50
2023-05-06T07:23:32.019Z,48.28
2023-05-06T07:26:38.531Z,49.24
2023-05-06T07:29:41.572Z,49.25
2023-05-06T07:32:44.229Z,50.25
2023-05-06T07:35:47.198Z,49.90
2023-05-06T07:38:50.747Z,50.51
2023-05-06T07:41:53.885Z,48.91
2023-05-06T07:44:56.659Z,48.10
2023-05-06T07:47:59.747Z,46.60
2023-05-06T07:51:03.421Z,44.53
2023-05-06T07:54:06.574Z,44.99
2023-05-06T07:57:09.527Z,44.85
2023-05-06T08:00:13.110Z,44.39
2023-05-06T08:03:17.209Z,44.33
2023-05-06T08:06:20.452Z,43.49
2023-05-06T08:09:23.426Z,42.07
2023-05-06T08:12:26.467Z,42.78
2023-05-06T08:15:29.282Z,42.71
2023-05-06T08:18:32.763Z,42.85
2023-05-06T08:21:35.707Z,43.28
2023-05-06T08:24:38.721Z,43.79
2023-05-06T08:27:41.365Z,44.03
2023-05-06T08:30:47.855Z,44.38
2023-05-06T08:33:53.072Z,44.55
2023-05-06T08:36:57.509Z,44.82
2023-05-06T08:40:00.210Z,45.45
2023-05-06T08:43:05.540Z,45.44
2023-05-06T08:46:09.053Z,45.62
2023-05-06T08:49:12.169Z,46.07
2023-05-06T08:52:15.381Z,45.69
2023-05-06T08:55:19.562Z,46.06
2023-05-06T08:58:24.949Z,45.90
2023-05-06T09:01:29.257Z,46.35
2023-05-06T09:04:32.076Z,46.85
2023-05-06T09:07:35.224Z,46.53
2023-05-06T09:10:45.140Z,47.00
2023-05-06T09:13:48.270Z,47.92
2023-05-06T09:16:53.540Z,47.03
2023-05-06T09:19:57.738Z,47.20
2023-05-06T09:23:01.739Z,47.23
2023-05-06T09:26:05.670Z,45.87
2023-05-06T09:29:08.720Z,45.28
2023-05-06T09:32:14.737Z,45.59
2023-05-06T09:35:17.682Z,44.83
2023-05-06T09:38:21.954Z,43.13
2023-05-06T09:41:25.767Z,41.80
2023-05-06T09:44:29.527Z,39.77
2023-05-06T09:47:35.887Z,37.53
2023-05-06T09:50:39.604Z,35.45
2023-05-06T09:53:44.693Z,34.62
2023-05-06T09:56:48.469Z,35.10
2023-05-06T09:59:54.338Z,35.63
2023-05-06T10:02:59.546Z,35.20
2023-05-06T10:06:06.312Z,34.68
2023-05-06T10:09:10.641Z,36.14
2023-05-06T10:12:14.157Z,36.95
2023-05-06T10:15:17.076Z,37.53
2023-05-06T10:18:22.149Z,38.71
2023-05-06T10:21:28.046Z,39.87
2023-05-06T10:24:37.190Z,39.03
2023-05-06T10:27:43.989Z,41.21
2023-05-06T10:30:49.651Z,41.45
2023-05-06T10:33:54.887Z,41.68
2023-05-06T10:37:00.394Z,41.98
2023-05-06T10:40:04.927Z,48.45
2023-05-06T10:43:21.426Z,51.00
2023-05-06T10:46:26.556Z,52.40
2023-05-06T10:49:29.994Z,52.57
2023-05-06T10:52:46.749Z,54.64
2023-05-06T10:56:09.599Z,55.28
2023-05-06T10:59:13.210Z,55.35
2023-05-06T11:02:20.430Z,56.56
2023-05-06T11:05:24.284Z,58.92
2023-05-06T11:08:27.688Z,59.98
2023-05-06T11:11:49.240Z,59.83
2023-05-06T11:14:52.336Z,60.69
2023-05-06T11:17:59.709Z,59.91
2023-05-06T11:21:02.985Z,60.23
2023-05-06T11:24:06.836Z,60.01
2023-05-06T11:27:11.335Z,61.64
2023-05-06T11:30:15.271Z,62.57
2023-05-06T11:33:21.849Z,62.52
2023-05-06T11:36:24.408Z,62.96
2023-05-06T11:39:39.324Z,64.36
2023-05-06T11:42:43.327Z,64.48
2023-05-06T11:45:50.488Z,64.48
2023-05-06T11:48:53.145Z,64.98
2023-05-06T11:51:57.416Z,66.03
2023-05-06T11:55:00.163Z,65.83
2023-05-06T11:58:03.207Z,67.12
2023-05-06T12:01:05.947Z,68.96
2023-05-06T12:04:09.464Z,71.77
2023-05-06T12:07:14.389Z,71.88
2023-05-06T12:10:18.335Z,73.94
2023-05-06T12:13:23.490Z,78.47
2023-05-06T12:16:27.287Z,80.02
2023-05-06T12:19:31.768Z,82.84
2023-05-06T12:22:35.343Z,85.33
2023-05-06T12:25:39.824Z,87.43
2023-05-06T12:28:44.082Z,89.41
2023-05-06T12:31:48.256Z,88.79
2023-05-06T12:34:51.399Z,89.59
2023-05-06T12:37:54.153Z,91.43
2023-05-06T12:40:57.413Z,90.79
2023-05-06T12:44:00.178Z,91.84
2023-05-06T12:47:08.034Z,93.02
2023-05-06T12:50:11.123Z,91.33
2023-05-06T12:53:14.317Z,92.47
2023-05-06T12:56:17.242Z,92.72
2023-05-06T12:59:20.536Z,91.26
2023-05-06T13:02:23.256Z,93.59
2023-05-06T13:05:26.394Z,93.25
2023-05-06T13:08:29.715Z,92.69
2023-05-06T13:11:32.719Z,91.69
2023-05-06T13:14:37.729Z,89.31
2023-05-06T13:17:42.299Z,88.64
2023-05-06T13:20:47.068Z,87.60
2023-05-06T13:23:50.145Z,86.15
2023-05-06T13:26:53.103Z,83.15
2023-05-06T13:29:56.104Z,82.30
2023-05-06T13:32:58.956Z,79.95
2023-05-06T13:36:04.583Z,77.62
2023-05-06T13:39:11.896Z,77.43
2023-05-06T13:42:14.977Z,79.58
2023-05-06T13:45:17.813Z,82.01
2023-05-06T13:48:20.954Z,80.08
2023-05-06T13:51:24.052Z,79.00
2023-05-06T13:54:27.150Z,80.52
2023-05-06T13:57:29.859Z,74.76
2023-05-06T14:00:34.549Z,74.14
2023-05-06T14:03:37.628Z,71.73
2023-05-06T14:06:43.599Z,68.25
2023-05-06T14:09:46.691Z,68.58
2023-05-06T14:12:49.526Z,67.84
2023-05-06T14:15:54.408Z,68.04
2023-05-06T14:18:57.145Z,65.93
2023-05-06T14:22:00.202Z,65.01
2023-05-06T14:25:03.011Z,65.60
2023-05-06T14:28:11.040Z,63.09
2023-05-06T14:31:13.840Z,62.79
2023-05-06T14:34:17.244Z,60.20
2023-05-06T14:37:19.930Z,60.27
2023-05-06T14:40:23.051Z,60.50
2023-05-06T14:43:25.893Z,61.74
2023-05-06T14:46:29.777Z,62.52
2023-05-06T14:49:32.602Z,63.61
2023-05-06T14:52:36.608Z,63.83
2023-05-06T14:55:41.644Z,63.09
2023-05-06T14:58:44.722Z,63.22
2023-05-06T15:01:47.389Z,62.84
2023-05-06T15:04:50.905Z,64.11
2023-05-06T15:07:55.131Z,63.20
2023-05-06T15:10:58.155Z,62.60
2023-05-06T15:14:00.864Z,61.26
2023-05-06T15:17:03.944Z,61.31
2023-05-06T15:20:08.931Z,61.46
2023-05-06T15:23:11.918Z,59.89
2023-05-06T15:26:14.743Z,59.90
2023-05-06T15:29:20.725Z,60.85
2023-05-06T15:32:23.696Z,58.77
2023-05-06T15:35:27.372Z,60.17
2023-05-06T15:38:53.352Z,59.14
2023-05-06T15:41:59.881Z,58.45
2023-05-06T15:45:02.612Z,57.51
2023-05-06T15:48:05.690Z,60.63
2023-05-06T15:51:08.605Z,58.78
2023-05-06T15:54:11.575Z,57.23
2023-05-06T15:57:15.221Z,57.45
2023-05-06T16:00:18.417Z,59.54
2023-05-06T16:03:21.750Z,60.09
2023-05-06T16:06:24.947Z,60.80
2023-05-06T16:09:28.040Z,61.60
2023-05-06T16:12:32.809Z,61.39
2023-05-06T16:15:35.916Z,61.95
2023-05-06T16:18:38.611Z,62.67
2023-05-06T16:21:41.544Z,63.36
2023-05-06T16:24:44.358Z,63.42
2023-05-06T16:27:47.419Z,62.90
2023-05-06T16:30:50.076Z,63.05
2023-05-06T16:33:53.168Z,63.29
2023-05-06T16:36:57.365Z,64.91
2023-05-06T16:40:00.907Z,64.95
2023-05-06T16:43:03.575Z,66.88
2023-05-06T16:46:06.781Z,69.87
2023-05-06T16:49:09.704Z,72.82
2023-05-06T16:52:13.077Z,74.40
2023-05-06T16:55:16.006Z,78.09
2023-05-06T16:58:19.676Z,81.45
2023-05-06T17:01:22.367Z,81.39
2023-05-06T17:04:25.496Z,85.45
2023-05-06T17:07:28.200Z,88.45
2023-05-06T17:10:31.257Z,87.23
2023-05-06T17:13:34.693Z,86.43
2023-05-06T17:16:39.018Z,89.92
2023-05-06T17:19:41.955Z,91.59
2023-05-06T17:22:44.974Z,91.81
2023-05-06T17:25:47.600Z,90.06
2023-05-06T17:28:51.351Z,92.39
2023-05-06T17:31:54.181Z,91.33
2023-05-06T17:34:57.252Z,93.40
2023-05-06T17:38:00.008Z,93.12
2023-05-06T17:41:03.106Z,93.55
2023-05-06T17:44:06.888Z,93.79
2023-05-06T17:47:10.514Z,94.80
2023-05-06T17:50:13.327Z,94.66
2023-05-06T17:53:16.463Z,94.68
2023-05-06T17:56:20.520Z,94.32
2023-05-06T17:59:25.624Z,94.32
2023-05-06T18:02:29.122Z,94.77
2023-05-06T18:05:32.339Z,95.45
2023-05-06T18:08:35.381Z,95.36
2023-05-06T18:11:39.415Z,94.82
2023-05-06T18:14:45.212Z,95.14
2023-05-06T18:17:48.234Z,93.37
2023-05-06T18:20:51.410Z,93.55
2023-05-06T18:24:01.906Z,94.70
2023-05-06T18:27:08.481Z,94.99
2023-05-06T18:30:11.868Z,95.93
2023-05-06T18:33:14.686Z,97.02
2023-05-06T18:36:18.045Z,96.79
2023-05-06T18:39:23.722Z,97.09
2023-05-06T18:42:27.910Z,97.50
2023-05-06T18:45:30.947Z,97.46
2023-05-06T18:48:34.153Z,97.44
2023-05-06T18:51:37.068Z,97.04
2023-05-06T18:54:41.241Z,96.24
2023-05-06T18:57:44.432Z,95.54
2023-05-06T19:00:47.493Z,94.43
2023-05-06T19:03:50.332Z,95.18
2023-05-06T19:06:53.498Z,93.34
2023-05-06T19:09:56.337Z,93.71
2023-05-06T19:12:59.396Z,94.42
2023-05-06T19:16:02.194Z,94.68
2023-05-06T19:19:08.534Z,94.04
2023-05-06T19:22:11.281Z,94.44
2023-05-06T19:25:14.622Z,93.34
2023-05-06T19:28:17.375Z,94.30
2023-05-06T19:31:21.212Z,94.37
2023-05-06T19:34:24.023Z,94.65
2023-05-06T19:37:30.291Z,94.40
2023-05-06T19:40:35.278Z,94.17
2023-05-06T19:43:45.064Z,92.76
2023-05-06T19:46:52.378Z,93.92
2023-05-06T19:49:56.036Z,93.37
2023-05-06T19:52:58.889Z,92.76
2023-05-06T19:56:12.811Z,92.08
2023-05-06T19:59:17.672Z,92.08
2023-05-06T20:02:21.207Z,91.49
2023-05-06T20:05:25.274Z,91.65
2023-05-06T20:08:28.713Z,91.51
2023-05-06T20:11:32.121Z,92.33
2023-05-06T20:14:35.116Z,92.41
2023-05-06T20:17:40.776Z,92.54
2023-05-06T20:20:44.310Z,93.56
2023-05-06T20:23:47.410Z,96.08
2023-05-06T20:26:50.740Z,96.47
2023-05-06T20:29:53.656Z,95.25
2023-05-06T20:32:56.844Z,96.60
2023-05-06T20:35:59.914Z,96.15
2023-05-06T20:39:03.086Z,96.01
2023-05-06T20:42:06.529Z,96.48
2023-05-06T20:45:10.153Z,96.43
2023-05-06T20:48:14.953Z,96.32
2023-05-06T20:51:18.246Z,96.72
2023-05-06T20:54:21.193Z,96.70
2023-05-06T20:57:23.874Z,97.90
2023-05-06T21:00:26.984Z,97.89
2023-05-06T21:03:30.627Z,96.06
2023-05-06T21:06:33.771Z,96.37
2023-05-06T21:09:38.272Z,95.41
2023-05-06T21:12:47.864Z,96.54
2023-05-06T21:15:50.758Z,96.04
2023-05-06T21:18:53.806Z,100.00
2023-05-06T21:21:56.968Z,100.00
2023-05-06T21:24:59.967Z,99.56
2023-05-06T21:28:06.768Z,100.00
2023-05-06T21:31:09.739Z,100.00
2023-05-06T21:34:12.636Z,100.00
2023-05-06T21:37:15.578Z,100.00
2023-05-06T21:40:18.507Z,100.00
2023-05-06T21:43:21.708Z,99.12
2023-05-06T21:46:24.634Z,99.88
2023-05-06T21:49:27.791Z,98.81
2023-05-06T21:52:31.195Z,99.15
2023-05-06T21:55:34.204Z,100.00
2023-05-06T21:58:37.016Z,99.89
2023-05-06T22:01:40.266Z,99.76
2023-05-06T22:04:43.639Z,99.28
2023-05-06T22:07:46.508Z,99.09
2023-05-06T22:10:49.535Z,98.68
2023-05-06T22:13:52.337Z,97.83
2023-05-06T22:16:55.401Z,96.90
2023-05-06T22:19:58.340Z,96.53
2023-05-06T22:23:01.997Z,96.96
2023-05-06T22:26:05.422Z,97.30
2023-05-06T22:29:08.746Z,96.77
2023-05-06T22:32:11.469Z,97.13
2023-05-06T22:35:14.526Z,97.65
2023-05-06T22:38:17.619Z,97.45
2023-05-06T22:41:21.573Z,97.56
2023-05-06T22:44:24.660Z,96.51
2023-05-06T22:47:27.749Z,97.44
2023-05-06T22:50:30.410Z,96.93
2023-05-06T22:53:33.616Z,97.17
2023-05-06T22:56:36.274Z,97.46
2023-05-06T22:59:39.230Z,96.77
2023-05-06T23:02:42.088Z,97.78
2023-05-06T23:05:45.958Z,98.11
2023-05-06T23:08:48.634Z,96.97
2023-05-06T23:11:51.670Z,97.32
2023-05-06T23:14:54.503Z,97.05
2023-05-06T23:17:57.509Z,97.10
2023-05-06T23:21:00.353Z,97.10
2023-05-06T23:24:03.496Z,96.41
2023-05-06T23:27:06.194Z,96.01
2023-05-06T23:30:10.755Z,96.41
2023-05-06T23:33:13.423Z,96.55
2023-05-06T23:36:17.379Z,97.28
2023-05-06T23:39:19.975Z,97.34
2023-05-06T23:42:24.363Z,97.50
2023-05-06T23:45:29.058Z,97.17
2023-05-06T23:48:33.578Z,96.49
2023-05-06T23:51:36.450Z,95.81
2023-05-06T23:54:39.478Z,97.19
2023-05-06T23:57:42.229Z,96.77
